Time;durP1;ratioP1;P1;durP2;ratioP2;P2;SDS_P1;SDS_P2;PMS_P1;PMS_P2;Temp;Humidity;BMP_temperature;BMP_pressure;BME280_temperature;BME280_humidity;BME280_pressure;Samples;Min_cycle;Max_cycle;Signal;HPM_P1;HPM_P2
2023/04/16 00:01:38;;;;;;;10.73;7.17;;;;;;;10.59;100.00;98025.38;4188041;28;20703;-81
2023/04/16 00:03:41;;;;;;;9.27;7.70;;;;;;;10.58;100.00;98018.47;4189685;28;20629;-81
2023/04/16 00:05:46;;;;;;;7.80;6.73;;;;;;;10.58;100.00;98018.47;4191534;28;20643;-81
2023/04/16 00:07:50;;;;;;;7.40;6.53;;;;;;;10.60;100.00;98019.22;4186869;28;20631;-81
2023/04/16 00:09:53;;;;;;;7.03;6.33;;;;;;;10.61;100.00;98018.25;4189439;28;20627;-81
2023/04/16 00:11:56;;;;;;;8.87;7.20;;;;;;;10.63;99.13;98020.75;4185449;28;20642;-80
2023/04/16 00:13:59;;;;;;;8.60;7.00;;;;;;;10.58;100.00;98021.06;4183934;28;21829;-81
2023/04/16 00:16:02;;;;;;;8.37;7.30;;;;;;;10.60;99.69;98018.38;4181161;28;21103;-81
2023/04/16 00:18:06;;;;;;;8.27;6.87;;;;;;;10.57;100.00;98021.19;4189819;28;21203;-80
2023/04/16 00:20:10;;;;;;;9.30;7.43;;;;;;;10.56;100.00;98024.75;4175091;28;20629;-81
2023/04/16 00:22:14;;;;;;;8.47;7.17;;;;;;;10.57;100.00;98023.78;4181876;28;20651;-80
2023/04/16 00:24:17;;;;;;;9.30;7.40;;;;;;;10.56;99.79;98022.16;4187296;28;20651;-80
2023/04/16 00:26:21;;;;;;;9.20;7.80;;;;;;;10.54;100.00;98032.69;4190081;28;20626;-81
2023/04/16 00:28:24;;;;;;;8.60;7.30;;;;;;;10.54;100.00;98027.47;4177880;28;21012;-81
2023/04/16 00:30:27;;;;;;;10.90;8.03;;;;;;;10.54;100.00;98030.06;4178025;28;21668;-80
2023/04/16 00:32:31;;;;;;;9.90;8.30;;;;;;;10.54;100.00;98031.81;4188364;28;20622;-81
2023/04/16 00:34:34;;;;;;;11.60;8.80;;;;;;;10.54;100.00;98024.84;4184930;28;20631;-80
2023/04/16 00:36:37;;;;;;;9.57;8.27;;;;;;;10.53;100.00;98028.41;4187172;28;20758;-80
2023/04/16 00:38:41;;;;;;;8.67;7.37;;;;;;;10.50;100.00;98025.16;4189559;28;20635;-80
2023/04/16 00:40:44;;;;;;;11.70;9.00;;;;;;;10.51;100.00;98026.84;4188995;28;20631;-80
2023/04/16 00:42:48;;;;;;;8.40;7.17;;;;;;;10.53;99.66;98027.56;4175846;28;20635;-80
2023/04/16 00:44:51;;;;;;;9.23;7.90;;;;;;;10.52;100.00;98033.72;4189987;28;20987;-81
2023/04/16 00:46:54;;;;;;;9.73;7.63;;;;;;;10.52;100.00;98033.72;4174301;28;21490;-80
2023/04/16 00:48:57;;;;;;;8.80;7.90;;;;;;;10.50;100.00;98035.59;4187028;28;20642;-81
2023/04/16 00:51:01;;;;;;;9.23;8.07;;;;;;;10.47;100.00;98035.81;4168940;28;20660;-80
2023/04/16 00:53:04;;;;;;;9.10;7.47;;;;;;;10.47;100.00;98036.63;4187268;28;20657;-81
2023/04/16 00:55:12;;;;;;;9.43;8.00;;;;;;;10.47;100.00;98034.03;4176410;28;20633;-81
2023/04/16 00:57:15;;;;;;;9.10;7.50;;;;;;;10.44;100.00;98030.81;4190264;28;20654;-80
2023/04/16 00:59:19;;;;;;;10.30;7.70;;;;;;;10.43;100.00;98034.34;4185673;28;20639;-80
2023/04/16 01:01:22;;;;;;;10.43;7.20;;;;;;;10.45;100.00;98033.31;4174998;28;20635;-80
2023/04/16 01:03:31;;;;;;;9.23;7.70;;;;;;;10.46;100.00;98029.78;4172326;28;20304;-80
2023/04/16 01:05:35;;;;;;;10.10;8.00;;;;;;;10.46;100.00;98041.97;4188121;28;20736;-80
2023/04/16 01:07:39;;;;;;;9.50;7.43;;;;;;;10.43;100.00;98035.19;4188141;28;20631;-80
2023/04/16 01:09:43;;;;;;;9.57;7.90;;;;;;;10.44;100.00;98030.81;4189650;28;20718;-80
2023/04/16 01:11:48;;;;;;;9.57;7.30;;;;;;;10.44;100.00;98030.81;4189364;28;20634;-81
2023/04/16 01:13:51;;;;;;;9.20;7.50;;;;;;;10.44;100.00;98031.63;4172174;28;20639;-81
2023/04/16 01:15:55;;;;;;;9.17;7.73;;;;;;;10.43;100.00;98031.72;4169414;28;20726;-80
2023/04/16 01:17:59;;;;;;;11.77;8.10;;;;;;;10.40;100.00;98032.81;4183293;28;20647;-81
2023/04/16 01:20:03;;;;;;;9.67;7.43;;;;;;;10.40;100.00;98040.63;4185410;28;20635;-80
2023/04/16 01:22:08;;;;;;;10.70;8.57;;;;;;;10.41;100.00;98038.84;4172698;28;20752;-81
2023/04/16 01:24:12;;;;;;;11.37;8.77;;;;;;;10.40;100.00;98034.56;4178754;28;20651;-80
2023/04/16 01:26:16;;;;;;;11.27;8.70;;;;;;;10.40;100.00;98037.16;4185827;28;20679;-81
2023/04/16 01:28:19;;;;;;;9.63;7.93;;;;;;;10.38;100.00;98041.66;4190281;28;20639;-80
2023/04/16 01:30:23;;;;;;;9.53;7.80;;;;;;;10.40;100.00;98043.22;4159800;28;20645;-80
2023/04/16 01:32:50;;;;;;;9.90;8.13;;;;;;;10.38;100.00;98052.09;4194781;28;20640;-80
2023/04/16 01:34:54;;;;;;;9.87;8.17;;;;;;;10.38;100.00;98041.66;4184723;28;20652;-80
2023/04/16 01:36:57;;;;;;;11.10;8.70;;;;;;;10.37;100.00;98045.19;4188671;28;20682;-80
2023/04/16 01:39:03;;;;;;;9.97;8.20;;;;;;;10.38;100.00;98047.69;4185459;28;21046;-81
2023/04/16 01:41:06;;;;;;;10.80;8.70;;;;;;;10.37;100.00;98048.66;4187580;28;21221;-81
2023/04/16 01:43:10;;;;;;;10.50;8.73;;;;;;;10.38;100.00;98046.88;4173146;28;20636;-81
2023/04/16 01:45:14;;;;;;;11.07;9.23;;;;;;;10.36;100.00;98048.75;4186388;28;20628;-80
2023/04/16 01:47:18;;;;;;;10.50;8.77;;;;;;;10.37;100.00;98056.47;4190287;28;20634;-81
2023/04/16 01:49:22;;;;;;;11.23;9.20;;;;;;;10.37;100.00;98050.41;4188923;28;20663;-80
2023/04/16 01:51:26;;;;;;;11.00;8.80;;;;;;;10.38;100.00;98049.47;4188230;28;20778;-80
2023/04/16 01:53:29;;;;;;;10.17;8.37;;;;;;;10.40;100.00;98058.00;4176595;28;21094;-80
2023/04/16 01:55:35;;;;;;;12.00;9.03;;;;;;;10.40;100.00;98061.47;4169232;28;21227;-80
2023/04/16 01:57:38;;;;;;;13.60;8.77;;;;;;;10.40;100.00;98050.19;4189792;28;20691;-80
2023/04/16 01:59:42;;;;;;;12.17;9.43;;;;;;;10.39;100.00;98054.59;4188025;28;20732;-80
2023/04/16 02:01:46;;;;;;;10.53;8.73;;;;;;;10.39;100.00;98057.19;4166718;28;21396;-80
2023/04/16 02:03:49;;;;;;;11.33;8.80;;;;;;;10.41;100.00;98060.50;4183876;28;20619;-80
2023/04/16 02:05:54;;;;;;;10.60;8.40;;;;;;;10.42;100.00;98058.78;4187576;28;20646;-80
2023/04/16 02:07:57;;;;;;;11.20;8.27;;;;;;;10.40;100.00;98053.66;4168746;28;20659;-80
2023/04/16 02:10:01;;;;;;;9.60;8.30;;;;;;;10.39;100.00;98051.97;4189391;28;21198;-80
2023/04/16 02:12:10;;;;;;;8.63;6.60;;;;;;;10.40;100.00;98056.25;4185229;28;20631;-80
2023/04/16 02:14:13;;;;;;;9.27;7.23;;;;;;;10.40;100.00;98055.41;4174932;28;20631;-80
2023/04/16 02:16:17;;;;;;;8.73;7.30;;;;;;;10.37;100.00;98050.41;4185966;28;20636;-80
2023/04/16 02:18:27;;;;;;;9.13;6.97;;;;;;;10.36;100.00;98053.97;4188881;28;20630;-80
2023/04/16 02:20:31;;;;;;;7.93;6.77;;;;;;;10.36;100.00;98054.78;4161047;28;20648;-80
2023/04/16 02:22:35;;;;;;;10.30;7.10;;;;;;;10.35;100.00;98055.72;4169981;28;20656;-80
2023/04/16 02:24:39;;;;;;;7.80;6.63;;;;;;;10.35;100.00;98058.31;4162021;28;20632;-80
2023/04/16 02:26:45;;;;;;;8.00;6.85;;;;;;;10.38;100.00;98058.13;4167460;28;20835;-80
2023/04/16 02:28:54;;;;;;;9.03;7.00;;;;;;;10.37;100.00;98058.22;4166938;28;20203;-80
2023/04/16 02:31:02;;;;;;;9.10;6.87;;;;;;;10.39;100.00;98061.59;4165443;28;20639;-80
2023/04/16 02:33:13;;;;;;;7.87;6.50;;;;;;;10.38;100.00;98063.34;4171568;28;20681;-80
2023/04/16 02:35:27;;;;;;;7.20;6.15;;;;;;;10.35;100.00;98062.72;4180956;28;20621;-81
2023/04/16 02:37:30;;;;;;;8.33;6.50;;;;;;;10.35;100.00;98058.31;4183831;28;20218;-80
2023/04/16 02:39:34;;;;;;;7.90;6.30;;;;;;;10.36;100.00;98065.22;4171844;28;21260;-81
2023/04/16 02:41:38;;;;;;;7.10;6.27;;;;;;;10.35;100.00;98057.50;4188695;28;20695;-81
2023/04/16 02:43:41;;;;;;;8.80;6.50;;;;;;;10.36;100.00;98061.78;4180027;28;20679;-81
2023/04/16 02:45:46;;;;;;;8.90;6.50;;;;;;;10.36;100.00;98064.41;4187291;28;20640;-81
2023/04/16 02:47:50;;;;;;;11.53;7.57;;;;;;;10.38;100.00;98072.94;4188171;28;20669;-81
2023/04/16 02:49:54;;;;;;;7.47;6.13;;;;;;;10.40;100.00;98076.25;4192123;28;20774;-80
2023/04/16 02:51:58;;;;;;;8.47;7.53;;;;;;;10.45;100.00;98074.19;4183666;28;20762;-80
2023/04/16 02:54:02;;;;;;;8.70;7.43;;;;;;;10.48;100.00;98068.78;4166269;28;20650;-80
2023/04/16 02:56:07;;;;;;;8.20;6.67;;;;;;;10.50;100.00;98074.72;4186792;28;20627;-80
2023/04/16 02:58:10;;;;;;;7.93;6.93;;;;;;;10.51;100.00;98071.19;4183123;28;20750;-80
2023/04/16 03:00:14;;;;;;;8.97;6.90;;;;;;;10.52;100.00;98075.44;4169866;28;20740;-80
2023/04/16 03:02:18;;;;;;;9.37;7.60;;;;;;;10.51;99.96;98073.78;4173365;28;21029;-80
2023/04/16 03:04:21;;;;;;;9.70;6.80;;;;;;;10.50;100.00;98075.53;4172828;28;21225;-80
2023/04/16 03:06:25;;;;;;;8.83;7.27;;;;;;;10.51;100.00;98079.00;4181565;28;21228;-81
2023/04/16 03:08:28;;;;;;;9.00;7.10;;;;;;;10.52;100.00;98075.44;4164143;28;20636;-80
2023/04/16 03:10:31;;;;;;;9.83;7.50;;;;;;;10.51;100.00;98079.00;4169416;28;20723;-81
2023/04/16 03:12:34;;;;;;;9.47;7.13;;;;;;;10.49;100.00;98070.44;4184286;28;20634;-80
2023/04/16 03:14:37;;;;;;;8.90;7.23;;;;;;;10.46;100.00;98075.84;4175251;28;20711;-80
2023/04/16 03:16:40;;;;;;;8.93;6.83;;;;;;;10.47;100.00;98072.31;4201613;28;20635;-80
2023/04/16 03:18:45;;;;;;;11.37;7.53;;;;;;;10.45;100.00;98069.00;4172626;28;20674;-80
2023/04/16 03:20:51;;;;;;;10.40;8.40;;;;;;;10.47;100.00;98074.91;4181125;28;21164;-80
2023/04/16 03:22:56;;;;;;;10.67;7.40;;;;;;;10.48;100.00;98079.22;4164300;28;20731;-80
2023/04/16 03:24:59;;;;;;;9.20;6.80;;;;;;;10.47;99.92;98083.56;4188411;28;20631;-80
2023/04/16 03:27:02;;;;;;;8.93;7.50;;;;;;;10.47;100.00;98082.75;4198282;28;20639;-80
2023/04/16 03:29:05;;;;;;;8.80;7.77;;;;;;;10.47;100.00;98085.34;4176023;28;20994;-80
2023/04/16 03:31:08;;;;;;;9.73;7.07;;;;;;;10.47;100.00;98095.78;4183442;28;20646;-80
2023/04/16 03:33:13;;;;;;;7.70;6.77;;;;;;;10.47;100.00;98096.59;4183263;28;20640;-80
2023/04/16 03:35:18;;;;;;;9.27;7.37;;;;;;;10.46;100.00;98094.97;4182336;28;20680;-80
2023/04/16 03:37:21;;;;;;;8.63;6.90;;;;;;;10.46;100.00;98086.28;4167571;28;20656;-80
2023/04/16 03:39:25;;;;;;;11.03;7.40;;;;;;;10.49;100.00;98091.28;4183411;28;20651;-81
2023/04/16 03:41:29;;;;;;;10.00;7.37;;;;;;;10.50;100.00;98087.75;4164467;28;20633;-80
2023/04/16 03:43:32;;;;;;;10.20;7.53;;;;;;;10.50;100.00;98093.78;4183080;28;20654;-80
2023/04/16 03:45:36;;;;;;;9.50;7.70;;;;;;;10.52;100.00;98101.50;4183453;28;21052;-80
2023/04/16 03:47:39;;;;;;;7.73;6.77;;;;;;;10.52;100.00;98098.91;4181180;28;20639;-81
2023/04/16 03:49:44;;;;;;;11.23;8.40;;;;;;;10.52;100.00;98098.91;4187337;28;21158;-81
2023/04/16 03:51:48;;;;;;;9.10;7.27;;;;;;;10.52;100.00;98106.72;4164333;28;20649;-81
2023/04/16 03:53:51;;;;;;;9.57;7.83;;;;;;;10.52;100.00;98101.50;4171309;28;21130;-81
2023/04/16 03:55:55;;;;;;;9.67;7.30;;;;;;;10.51;100.00;98107.69;4168433;28;20624;-81
2023/04/16 03:58:01;;;;;;;7.97;6.50;;;;;;;10.52;100.00;98098.91;4181728;28;20667;-81
2023/04/16 04:00:08;;;;;;;9.17;7.03;;;;;;;10.51;100.00;98105.06;4163937;28;20646;-81
2023/04/16 04:02:24;;;;;;;9.37;7.00;;;;;;;10.51;100.00;98105.06;4168316;28;20664;-81
2023/04/16 04:04:28;;;;;;;10.60;7.20;;;;;;;10.51;100.00;98108.50;4173396;28;20659;-81
2023/04/16 04:06:32;;;;;;;8.90;7.43;;;;;;;10.51;99.78;98107.69;4160344;28;22120;-81
2023/04/16 04:08:37;;;;;;;10.47;7.80;;;;;;;10.51;100.00;98111.13;4186656;28;20620;-80
2023/04/16 04:10:41;;;;;;;10.20;7.60;;;;;;;10.52;100.00;98114.53;4187147;28;20635;-81
2023/04/16 04:12:46;;;;;;;12.27;7.10;;;;;;;10.52;100.00;98107.53;4185758;28;20642;-81
2023/04/16 04:14:49;;;;;;;8.80;7.47;;;;;;;10.52;100.00;98115.38;4185775;28;20647;-81
2023/04/16 04:16:52;;;;;;;8.53;6.73;;;;;;;10.53;100.00;98118.84;4159003;28;20638;-80
2023/04/16 04:18:56;;;;;;;9.60;7.00;;;;;;;10.51;100.00;98118.94;4172215;28;20742;-81
2023/04/16 04:20:59;;;;;;;9.90;7.90;;;;;;;10.50;100.00;98114.66;4160210;28;20641;-81
2023/04/16 04:23:05;;;;;;;9.63;7.80;;;;;;;10.51;100.00;98115.50;4185988;28;20669;-81
2023/04/16 04:25:10;;;;;;;10.13;7.30;;;;;;;10.53;100.00;98111.00;4191151;28;20670;-81
2023/04/16 04:27:13;;;;;;;9.03;7.37;;;;;;;10.52;100.00;98117.16;4170153;28;20975;-80
2023/04/16 04:29:17;;;;;;;10.27;7.80;;;;;;;10.53;100.00;98124.88;4164864;28;20668;-80
2023/04/16 04:31:21;;;;;;;10.10;7.40;;;;;;;10.53;100.00;98121.44;4187381;28;20631;-80
2023/04/16 04:33:24;;;;;;;9.77;7.93;;;;;;;10.50;100.00;98125.06;4170470;28;20631;-81
2023/04/16 04:35:27;;;;;;;9.60;7.77;;;;;;;10.50;100.00;98130.28;4182897;28;20657;-80
2023/04/16 04:37:30;;;;;;;9.67;8.53;;;;;;;10.51;100.00;98121.53;4181107;28;20632;-80
2023/04/16 04:39:34;;;;;;;9.50;7.50;;;;;;;10.53;100.00;98124.03;4172785;28;20746;-80
2023/04/16 04:41:38;;;;;;;9.70;7.57;;;;;;;10.54;100.00;98133.53;4186178;28;20628;-81
2023/04/16 04:43:42;;;;;;;9.87;7.50;;;;;;;10.54;100.00;98131.75;4189689;28;20638;-81
2023/04/16 04:45:45;;;;;;;10.27;7.50;;;;;;;10.55;100.00;98135.19;4182653;28;21227;-81
2023/04/16 04:47:49;;;;;;;10.10;7.63;;;;;;;10.55;100.00;98133.41;4172549;28;20632;-81
2023/04/16 04:49:52;;;;;;;8.73;7.20;;;;;;;10.56;100.00;98140.31;4169834;28;20640;-81
2023/04/16 04:51:55;;;;;;;9.77;7.97;;;;;;;10.58;100.00;98142.81;4173141;28;20748;-81
2023/04/16 04:53:58;;;;;;;10.30;7.27;;;;;;;10.56;100.00;98145.53;4193515;28;20636;-81
2023/04/16 04:56:01;;;;;;;11.87;8.20;;;;;;;10.57;100.00;98149.81;4171481;28;20632;-81
2023/04/16 04:58:16;;;;;;;10.03;8.47;;;;;;;10.58;100.00;98148.03;4178240;28;20699;-81
2023/04/16 05:00:19;;;;;;;11.27;8.50;;;;;;;10.58;100.00;98153.25;4178424;28;20677;-81
2023/04/16 05:02:28;;;;;;;10.37;8.30;;;;;;;10.59;100.00;98154.94;4187051;28;20647;-81
2023/04/16 05:04:31;;;;;;;10.97;7.60;;;;;;;10.60;99.95;98151.34;4174080;28;20664;-81
2023/04/16 05:06:35;;;;;;;10.10;8.33;;;;;;;10.60;100.00;98159.19;4190033;28;21338;-81
2023/04/16 05:08:38;;;;;;;10.37;8.33;;;;;;;10.60;100.00;98157.44;4195899;28;20639;-81
2023/04/16 05:10:41;;;;;;;11.60;9.07;;;;;;;10.59;100.00;98158.34;4158956;28;20691;-81
2023/04/16 05:12:44;;;;;;;10.97;8.83;;;;;;;10.61;100.00;98166.06;4195100;28;20643;-81
2023/04/16 05:14:51;;;;;;;11.87;8.43;;;;;;;10.62;100.00;98171.19;4179392;28;20628;-80
2023/04/16 05:16:55;;;;;;;12.33;8.47;;;;;;;10.59;100.00;98168.78;4172995;28;20632;-80
2023/04/16 05:18:58;;;;;;;10.47;8.33;;;;;;;10.57;100.00;98173.28;4186626;28;21268;-80
2023/04/16 05:21:01;;;;;;;10.73;9.03;;;;;;;10.57;99.90;98177.63;4195207;28;20639;-80
2023/04/16 05:23:04;;;;;;;12.00;9.10;;;;;;;10.58;100.00;98174.09;4191794;28;20663;-81
2023/04/16 05:25:07;;;;;;;11.43;9.17;;;;;;;10.61;100.00;98179.13;4191570;28;20663;-80
2023/04/16 05:27:10;;;;;;;12.87;8.90;;;;;;;10.61;100.00;98176.50;4187126;28;21052;-80
2023/04/16 05:29:13;;;;;;;13.80;9.50;;;;;;;10.63;100.00;98185.91;4189486;28;20976;-80
2023/04/16 05:31:19;;;;;;;13.60;10.07;;;;;;;10.65;100.00;98184.03;4188106;28;20738;-80
2023/04/16 05:33:22;;;;;;;11.33;9.53;;;;;;;10.65;100.00;98178.81;4190646;28;20666;-81
2023/04/16 05:35:26;;;;;;;13.90;9.87;;;;;;;10.67;100.00;98194.34;4189835;28;20689;-80
2023/04/16 05:37:29;;;;;;;12.27;10.13;;;;;;;10.70;100.00;98188.94;4175808;28;20635;-80
2023/04/16 05:39:32;;;;;;;13.13;10.50;;;;;;;10.70;100.00;98194.97;4189113;28;20708;-81
2023/04/16 05:41:35;;;;;;;16.07;12.40;;;;;;;10.68;100.00;98196.03;4194278;28;20627;-80
2023/04/16 05:43:39;;;;;;;15.27;11.00;;;;;;;10.67;100.00;98196.97;4190904;28;20627;-81
2023/04/16 05:45:42;;;;;;;15.40;11.57;;;;;;;10.69;100.00;98200.28;4181393;28;20639;-80
2023/04/16 05:47:47;;;;;;;18.40;12.80;;;;;;;10.70;100.00;98201.97;4187800;28;20743;-81
2023/04/16 05:49:50;;;;;;;17.47;12.03;;;;;;;10.70;100.00;98204.59;4175631;28;20628;-81
2023/04/16 05:51:53;;;;;;;13.57;11.03;;;;;;;10.70;100.00;98207.19;4190616;28;21179;-81
2023/04/16 05:53:56;;;;;;;13.90;11.07;;;;;;;10.70;100.00;98202.81;4181538;28;20636;-81
2023/04/16 05:55:59;;;;;;;15.80;11.80;;;;;;;10.69;100.00;98210.72;4167727;28;20732;-80
2023/04/16 05:58:03;;;;;;;15.43;11.30;;;;;;;10.70;100.00;98215.03;4189651;28;20643;-80
2023/04/16 06:00:08;;;;;;;15.90;11.80;;;;;;;10.71;100.00;98206.28;4188382;28;20701;-80
2023/04/16 06:02:14;;;;;;;16.43;11.77;;;;;;;10.72;100.00;98207.91;4173007;28;20728;-80
2023/04/16 06:04:19;;;;;;;14.00;10.80;;;;;;;10.73;100.00;98209.59;4175838;28;20723;-81
2023/04/16 06:06:22;;;;;;;15.70;10.53;;;;;;;10.75;100.00;98218.16;4193161;28;20640;-81
2023/04/16 06:08:25;;;;;;;14.70;10.23;;;;;;;10.74;100.00;98217.31;4173364;28;20644;-81
2023/04/16 06:10:28;;;;;;;12.93;9.90;;;;;;;10.75;100.00;98212.94;4185664;28;20653;-80
2023/04/16 06:12:32;;;;;;;16.40;11.37;;;;;;;10.73;100.00;98220.03;4185058;28;20643;-80
2023/04/16 06:14:35;;;;;;;14.23;9.80;;;;;;;10.72;100.00;98221.81;4188321;28;20750;-80
2023/04/16 06:16:38;;;;;;;15.73;10.27;;;;;;;10.75;100.00;98223.38;4185395;28;20622;-80
2023/04/16 06:18:41;;;;;;;13.00;10.20;;;;;;;10.76;100.00;98225.03;4195112;28;20726;-80
2023/04/16 06:20:45;;;;;;;13.93;10.80;;;;;;;10.75;100.00;98218.16;4188857;28;21043;-81
2023/04/16 06:22:48;;;;;;;13.00;9.83;;;;;;;10.76;100.00;98222.44;4176447;28;21051;-81
2023/04/16 06:24:52;;;;;;;13.87;10.83;;;;;;;10.76;100.00;98223.25;4183214;28;21079;-81
2023/04/16 06:26:56;;;;;;;13.30;10.90;;;;;;;10.76;100.00;98219.81;4187224;28;20653;-81
2023/04/16 06:28:59;;;;;;;15.83;11.33;;;;;;;10.77;100.00;98219.72;4162098;28;20629;-81
2023/04/16 06:31:02;;;;;;;14.67;11.33;;;;;;;10.74;100.00;98219.09;4176908;28;20632;-81
2023/04/16 06:33:05;;;;;;;15.37;11.30;;;;;;;10.73;100.00;98223.47;4173384;28;20644;-81
2023/04/16 06:35:09;;;;;;;15.00;11.27;;;;;;;10.74;100.00;98226.94;4163332;28;20639;-81
2023/04/16 06:37:13;;;;;;;14.20;10.90;;;;;;;10.74;100.00;98221.72;4175990;28;20682;-81
2023/04/16 06:39:17;;;;;;;17.97;12.77;;;;;;;10.75;100.00;98231.19;4172542;28;20758;-80
2023/04/16 06:41:21;;;;;;;15.37;11.40;;;;;;;10.76;100.00;98233.69;4168832;28;21203;-81
2023/04/16 06:43:24;;;;;;;15.10;11.73;;;;;;;10.77;100.00;98231.94;4185870;28;20638;-81
2023/04/16 06:45:27;;;;;;;17.00;13.37;;;;;;;10.75;100.00;98237.25;4183968;28;20656;-81
2023/04/16 06:47:30;;;;;;;16.57;12.50;;;;;;;10.77;100.00;98237.97;4184113;28;20639;-81
2023/04/16 06:49:34;;;;;;;19.20;12.40;;;;;;;10.78;100.00;98241.41;4174665;28;20721;-81
2023/04/16 06:51:37;;;;;;;17.20;13.10;;;;;;;10.76;100.00;98245.91;4175071;28;20641;-81
2023/04/16 06:53:42;;;;;;;16.03;12.80;;;;;;;10.77;100.00;98242.38;4171220;28;20646;-81
2023/04/16 06:55:45;;;;;;;18.57;13.87;;;;;;;10.78;100.00;98249.25;4182463;28;20628;-81
2023/04/16 06:57:48;;;;;;;18.50;14.37;;;;;;;10.77;100.00;98247.59;4182379;28;21225;-81
2023/04/16 06:59:51;;;;;;;19.30;14.60;;;;;;;10.78;99.92;98244.03;4188051;28;20663;-81
2023/04/16 07:01:55;;;;;;;18.50;14.53;;;;;;;10.76;100.00;98243.31;4186646;28;21107;-81
2023/04/16 07:03:58;;;;;;;19.30;14.77;;;;;;;10.75;100.00;98246.84;4183642;28;20635;-81
2023/04/16 07:06:01;;;;;;;20.10;14.87;;;;;;;10.76;100.00;98243.31;4184976;28;20691;-81
2023/04/16 07:08:05;;;;;;;21.23;14.80;;;;;;;10.74;100.00;98250.41;4181659;28;20650;-81
2023/04/16 07:10:10;;;;;;;22.10;15.23;;;;;;;10.73;100.00;98256.56;4201676;28;21962;-81
2023/04/16 07:12:13;;;;;;;19.47;15.40;;;;;;;10.74;100.00;98253.00;4183679;28;20746;-81
2023/04/16 07:14:16;;;;;;;22.33;16.73;;;;;;;10.72;100.00;98253.13;4182096;28;20698;-80
2023/04/16 07:16:20;;;;;;;22.10;16.87;;;;;;;10.72;100.00;98250.50;4182800;28;21133;-81
2023/04/16 07:18:23;;;;;;;25.63;18.23;;;;;;;10.70;99.52;98251.53;4180303;28;20632;-81
2023/04/16 07:20:26;;;;;;;26.20;18.80;;;;;;;10.69;100.00;98255.06;4196143;28;20766;-81
2023/04/16 07:22:29;;;;;;;23.40;17.33;;;;;;;10.70;100.00;98256.75;4169932;28;20719;-81
2023/04/16 07:24:33;;;;;;;23.00;16.93;;;;;;;10.72;100.00;98262.69;4177803;28;20631;-80
2023/04/16 07:26:37;;;;;;;21.77;15.87;;;;;;;10.73;100.00;98264.38;4180839;28;21242;-80
2023/04/16 07:28:40;;;;;;;22.97;16.73;;;;;;;10.73;100.00;98273.03;4181800;28;20629;-80
2023/04/16 07:30:43;;;;;;;22.90;17.67;;;;;;;10.74;100.00;98271.28;4186096;28;20636;-80
2023/04/16 07:32:47;;;;;;;22.23;17.10;;;;;;;10.76;100.00;98266.78;4192284;28;20693;-80
2023/04/16 07:34:50;;;;;;;19.90;15.90;;;;;;;10.78;99.93;98273.56;4174681;28;20698;-80
2023/04/16 07:36:53;;;;;;;19.80;16.63;;;;;;;10.76;100.00;98272.00;4190742;28;20636;-80
2023/04/16 07:38:56;;;;;;;20.43;16.07;;;;;;;10.77;100.00;98277.13;4187197;28;20729;-80
2023/04/16 07:40:59;;;;;;;20.47;16.20;;;;;;;10.80;100.00;98278.69;4189006;28;20751;-80
2023/04/16 07:43:04;;;;;;;23.47;17.00;;;;;;;10.81;100.00;98270.78;4183264;28;20667;-80
2023/04/16 07:45:08;;;;;;;22.50;16.27;;;;;;;10.81;100.00;98279.41;4187468;28;20989;-80
2023/04/16 07:47:11;;;;;;;21.80;17.13;;;;;;;10.82;100.00;98281.09;4186845;28;21200;-80
2023/04/16 07:49:14;;;;;;;21.20;16.40;;;;;;;10.84;99.83;98279.22;4187391;28;20628;-80
2023/04/16 07:51:18;;;;;;;22.13;16.37;;;;;;;10.86;100.00;98281.72;4181456;28;20639;-79
2023/04/16 07:53:21;;;;;;;22.17;15.73;;;;;;;10.86;100.00;98285.16;4185598;28;21230;-80
2023/04/16 07:55:24;;;;;;;20.70;16.13;;;;;;;10.85;100.00;98283.50;4199904;28;20627;-79
2023/04/16 07:57:27;;;;;;;22.80;16.67;;;;;;;10.86;100.00;98286.94;4184434;28;21248;-79
2023/04/16 07:59:31;;;;;;;22.03;16.60;;;;;;;10.83;100.00;98284.53;4186383;28;20667;-79
2023/04/16 08:01:35;;;;;;;20.80;16.37;;;;;;;10.85;100.00;98293.09;4189739;28;20673;-79
2023/04/16 08:03:38;;;;;;;24.50;16.60;;;;;;;10.85;100.00;98296.56;4190157;28;21231;-80
2023/04/16 08:05:42;;;;;;;20.17;15.63;;;;;;;10.88;99.90;98293.75;4186536;28;20720;-80
2023/04/16 08:07:45;;;;;;;22.67;16.70;;;;;;;10.89;100.00;98300.63;4174837;28;21034;-80
2023/04/16 08:09:49;;;;;;;20.57;16.00;;;;;;;10.93;100.00;98299.47;4182273;28;20646;-80
2023/04/16 08:11:52;;;;;;;19.53;15.17;;;;;;;10.91;100.00;98303.94;4182183;28;20703;-80
2023/04/16 08:13:55;;;;;;;21.20;15.27;;;;;;;10.92;100.00;98299.59;4185851;28;21241;-80
2023/04/16 08:16:01;;;;;;;21.07;15.50;;;;;;;10.89;100.00;98303.22;4188858;28;20639;-80
2023/04/16 08:18:06;;;;;;;21.40;15.53;;;;;;;10.88;100.00;98306.78;4187500;28;20630;-80
2023/04/16 08:20:10;;;;;;;22.60;14.80;;;;;;;10.91;100.00;98313.56;4187994;28;21214;-80
2023/04/16 08:22:18;;;;;;;19.17;15.10;;;;;;;10.90;99.92;98310.13;4165861;28;21171;-80
2023/04/16 08:24:21;;;;;;;21.60;15.60;;;;;;;10.89;100.00;98316.25;4166779;28;20645;-81
2023/04/16 08:26:24;;;;;;;20.67;15.67;;;;;;;10.89;100.00;98318.88;4182082;28;20640;-80
2023/04/16 08:28:28;;;;;;;22.00;15.57;;;;;;;10.90;100.00;98317.13;4192199;28;20630;-80
2023/04/16 08:30:31;;;;;;;20.63;15.10;;;;;;;10.91;100.00;98322.22;4188252;28;20632;-80
2023/04/16 08:32:35;;;;;;;20.67;14.50;;;;;;;10.91;100.00;98321.38;4185202;28;20636;-80
2023/04/16 08:34:38;;;;;;;21.10;15.13;;;;;;;10.95;100.00;98322.88;4171713;28;20632;-80
2023/04/16 08:36:42;;;;;;;19.67;14.80;;;;;;;10.95;100.00;98328.91;4166500;28;20633;-80
2023/04/16 08:38:45;;;;;;;17.77;13.07;;;;;;;10.94;99.82;98319.41;4184191;28;20635;-80
2023/04/16 08:40:48;;;;;;;19.47;14.20;;;;;;;10.95;100.00;98323.69;4173440;28;20683;-80
2023/04/16 08:42:54;;;;;;;16.87;12.50;;;;;;;11.01;100.00;98331.13;4183472;28;20627;-80
2023/04/16 08:45:04;;;;;;;18.13;13.20;;;;;;;11.07;100.00;98335.94;4189943;28;20635;-81
2023/04/16 08:47:09;;;;;;;18.50;13.70;;;;;;;11.07;100.00;98335.94;4189140;28;20634;-80
2023/04/16 08:49:16;;;;;;;16.93;12.50;;;;;;;11.09;100.00;98333.22;4189781;28;20637;-81
2023/04/16 08:51:22;;;;;;;17.20;12.80;;;;;;;11.10;100.00;98342.72;4189269;28;21246;-81
2023/04/16 08:53:33;;;;;;;15.50;11.97;;;;;;;11.04;99.40;98336.13;4181609;28;20741;-81
2023/04/16 08:55:37;;;;;;;15.00;12.03;;;;;;;11.04;100.00;98333.53;4192188;28;20650;-82
2023/04/16 08:57:44;;;;;;;16.50;11.50;;;;;;;11.06;100.00;98344.69;4189733;28;20624;-82
2023/04/16 08:59:48;;;;;;;15.53;11.10;;;;;;;11.04;99.54;98346.56;4187688;28;20623;-80
2023/04/16 09:01:52;;;;;;;15.17;12.00;;;;;;;11.03;100.00;98344.06;4190456;28;20647;-80
2023/04/16 09:03:55;;;;;;;17.63;12.00;;;;;;;11.06;100.00;98344.69;4190215;28;20675;-82
2023/04/16 09:06:02;;;;;;;17.80;12.97;;;;;;;11.05;100.00;98348.25;4187716;28;21328;-82
2023/04/16 09:08:06;;;;;;;16.40;12.70;;;;;;;11.04;100.00;98346.56;4172366;28;20707;-80
2023/04/16 09:10:10;;;;;;;15.43;12.70;;;;;;;11.06;100.00;98344.69;4193845;28;20697;-79
2023/04/16 09:12:13;;;;;;;15.60;12.23;;;;;;;11.06;100.00;98352.53;4186057;28;20728;-81
2023/04/16 09:14:17;;;;;;;14.90;11.50;;;;;;;11.02;99.55;98351.06;4174134;28;20635;-82
2023/04/16 09:16:21;;;;;;;13.90;10.40;;;;;;;10.99;100.00;98356.50;4193559;28;20627;-81
2023/04/16 09:18:24;;;;;;;15.40;11.20;;;;;;;10.99;99.50;98353.88;4188656;28;21226;-82
2023/04/16 09:20:28;;;;;;;15.63;12.40;;;;;;;11.01;100.00;98359.81;4189305;28;20662;-82
2023/04/16 09:22:32;;;;;;;16.87;11.10;;;;;;;11.06;100.00;98362.97;4178332;28;21074;-83
2023/04/16 09:24:37;;;;;;;18.27;11.27;;;;;;;11.10;100.00;98363.63;4179722;28;20647;-81
2023/04/16 09:26:42;;;;;;;19.90;11.77;;;;;;;11.09;100.00;98373.19;4186716;28;20627;-81
2023/04/16 09:28:49;;;;;;;14.70;11.50;;;;;;;11.09;100.00;98364.53;4183184;28;20794;-80
2023/04/16 09:31:07;;;;;;;15.80;12.30;;;;;;;11.12;99.84;98366.94;4180984;28;21042;-80